Time;durP1;ratioP1;P1;durP2;ratioP2;P2;SDS_P1;SDS_P2;PMS_P1;PMS_P2;Temp;Humidity;BMP_temperature;BMP_pressure;BME280_temperature;BME280_humidity;BME280_pressure;Samples;Min_cycle;Max_cycle;Signal;HPM_P1;HPM_P2
2024/01/09 00:01:28;;;;;;;10.27;9.97;;;-5.60;99.90;;;;;;6230639;22;20205;-79
2024/01/09 00:03:55;;;;;;;10.17;9.87;;;-5.70;99.90;;;;;;6230252;23;20253;-80
2024/01/09 00:06:22;;;;;;;11.07;10.77;;;-5.70;99.90;;;;;;6230377;23;20942;-80
2024/01/09 00:08:50;;;;;;;11.50;11.10;;;-5.60;99.90;;;;;;6229860;23;20332;-79
2024/01/09 00:11:17;;;;;;;11.27;10.97;;;-5.70;99.90;;;;;;6230204;22;20207;-79
2024/01/09 00:13:44;;;;;;;10.87;10.57;;;-5.60;99.90;;;;;;6230859;23;20261;-80
2024/01/09 00:16:14;;;;;;;10.90;10.60;;;-5.60;99.90;;;;;;6230303;23;20280;-79
2024/01/09 00:18:43;;;;;;;10.87;10.57;;;-5.60;99.90;;;;;;6229203;23;20210;-80
2024/01/09 00:21:12;;;;;;;11.33;10.97;;;-5.60;99.90;;;;;;6230431;22;20249;-80
2024/01/09 00:23:39;;;;;;;10.30;10.00;;;-5.60;99.90;;;;;;6232220;23;20218;-80
2024/01/09 00:26:07;;;;;;;10.90;10.60;;;-5.60;99.90;;;;;;6230205;23;20271;-80
2024/01/09 00:28:34;;;;;;;10.53;10.23;;;-5.60;99.90;;;;;;6230184;23;20216;-79
2024/01/09 00:31:01;;;;;;;11.07;10.77;;;-5.70;99.90;;;;;;6230649;22;20247;-80
2024/01/09 00:33:29;;;;;;;10.53;10.23;;;-5.60;99.90;;;;;;6229638;23;20205;-79
2024/01/09 00:35:57;;;;;;;10.90;10.60;;;-5.60;99.90;;;;;;6229206;23;20275;-80
2024/01/09 00:38:25;;;;;;;10.77;10.47;;;-5.60;99.90;;;;;;6229516;23;20197;-80
2024/01/09 00:40:52;;;;;;;10.40;10.10;;;-5.60;99.90;;;;;;6229168;22;20280;-79
2024/01/09 00:43:19;;;;;;;10.73;10.43;;;-5.70;99.90;;;;;;6229412;23;20204;-79
2024/01/09 00:45:47;;;;;;;10.87;10.57;;;-5.70;99.90;;;;;;6230065;23;20200;-80
2024/01/09 00:48:14;;;;;;;10.83;10.53;;;-5.60;99.90;;;;;;6230081;23;20197;-79
2024/01/09 00:50:42;;;;;;;10.40;10.10;;;-5.70;99.90;;;;;;6232029;22;20199;-80
2024/01/09 00:53:11;;;;;;;11.03;10.73;;;-5.70;99.90;;;;;;6231936;23;20200;-80
2024/01/09 00:55:38;;;;;;;10.50;10.20;;;-5.70;99.90;;;;;;6230037;23;20248;-80
2024/01/09 00:58:05;;;;;;;10.23;9.93;;;-5.70;99.90;;;;;;6229847;23;20261;-80
2024/01/09 01:00:33;;;;;;;10.73;10.43;;;-5.70;99.90;;;;;;6229691;22;20221;-79
2024/01/09 01:03:00;;;;;;;10.93;10.63;;;-5.60;99.90;;;;;;6232224;23;20222;-79
2024/01/09 01:05:28;;;;;;;10.67;10.37;;;-5.60;99.90;;;;;;6230796;23;20266;-80
2024/01/09 01:07:55;;;;;;;10.57;10.27;;;-5.60;99.90;;;;;;6230018;23;20206;-80
2024/01/09 01:10:26;;;;;;;10.27;9.97;;;-5.60;99.90;;;;;;6229875;22;20198;-80
2024/01/09 01:12:53;;;;;;;10.50;10.20;;;-5.60;99.90;;;;;;6229127;23;20220;-79
2024/01/09 01:15:21;;;;;;;10.77;10.47;;;-5.70;99.90;;;;;;6229693;23;20209;-79
2024/01/09 01:17:48;;;;;;;10.57;10.27;;;-5.60;99.90;;;;;;6230711;23;20245;-79
2024/01/09 01:20:16;;;;;;;10.60;10.30;;;-5.70;99.90;;;;;;6234806;23;20205;-79
2024/01/09 01:22:43;;;;;;;11.50;11.10;;;-5.70;99.90;;;;;;6233821;23;20256;-81
2024/01/09 01:25:11;;;;;;;10.87;10.57;;;-5.70;99.90;;;;;;6233063;23;20205;-79
2024/01/09 01:27:40;;;;;;;10.70;10.40;;;-5.70;99.90;;;;;;6241200;23;20197;-79
2024/01/09 01:30:08;;;;;;;10.93;10.63;;;-5.70;99.90;;;;;;6231755;23;20201;-79
2024/01/09 01:32:36;;;;;;;10.40;10.10;;;-5.80;99.90;;;;;;6237563;23;20281;-79
2024/01/09 01:35:03;;;;;;;10.73;10.43;;;-5.80;99.90;;;;;;6236486;23;20221;-79
2024/01/09 01:37:31;;;;;;;10.70;10.40;;;-5.80;99.90;;;;;;6238668;23;20193;-79
2024/01/09 01:39:58;;;;;;;10.33;10.03;;;-5.80;99.90;;;;;;6236128;23;20210;-79
2024/01/09 01:42:26;;;;;;;10.27;9.97;;;-5.70;99.90;;;;;;6233532;22;20237;-81
2024/01/09 01:44:55;;;;;;;10.37;10.07;;;-5.70;99.90;;;;;;6244399;23;20352;-78
2024/01/09 01:47:22;;;;;;;10.53;10.23;;;-5.80;99.90;;;;;;6238501;23;20202;-79
2024/01/09 01:49:49;;;;;;;10.60;10.30;;;-5.80;99.90;;;;;;6234745;23;20198;-80
2024/01/09 01:52:17;;;;;;;10.77;10.47;;;-5.90;99.90;;;;;;6230720;22;20314;-79
2024/01/09 01:54:45;;;;;;;11.03;10.73;;;-5.90;99.90;;;;;;6230035;23;20229;-80
2024/01/09 01:57:13;;;;;;;10.77;10.47;;;-5.90;99.90;;;;;;6229742;23;20201;-79
2024/01/09 01:59:46;;;;;;;10.77;10.47;;;-5.90;99.90;;;;;;6240471;23;20201;-79
2024/01/09 02:02:15;;;;;;;10.87;10.57;;;-6.00;99.90;;;;;;6243251;22;20264;-80
2024/01/09 02:04:44;;;;;;;10.57;10.27;;;-6.00;99.90;;;;;;6242322;22;20212;-79
2024/01/09 02:07:12;;;;;;;10.53;10.23;;;-6.00;99.90;;;;;;6249317;22;20255;-78
2024/01/09 02:09:39;;;;;;;10.30;10.00;;;-6.00;99.90;;;;;;6249981;22;20200;-78
2024/01/09 02:12:07;;;;;;;10.93;10.63;;;-6.00;99.90;;;;;;6250111;22;20191;-78
2024/01/09 02:14:35;;;;;;;10.67;10.37;;;-5.90;99.90;;;;;;6250010;22;20175;-78
2024/01/09 02:17:03;;;;;;;11.03;10.73;;;-5.90;99.90;;;;;;6250187;22;20213;-78
2024/01/09 02:19:34;;;;;;;10.63;10.33;;;-5.90;99.90;;;;;;6249919;22;20182;-78
2024/01/09 02:22:01;;;;;;;10.63;10.33;;;-6.00;99.90;;;;;;6249695;22;20202;-80
2024/01/09 02:24:28;;;;;;;10.83;10.53;;;-5.90;99.90;;;;;;6250075;22;20174;-78
2024/01/09 02:27:07;;;;;;;10.83;10.53;;;-6.00;99.90;;;;;;6249808;22;20194;-77
2024/01/09 02:29:36;;;;;;;10.20;9.90;;;-5.90;99.90;;;;;;6247629;23;20204;-77
2024/01/09 02:32:06;;;;;;;10.80;10.50;;;-5.90;99.90;;;;;;6249544;22;20221;-78
2024/01/09 02:34:35;;;;;;;10.60;10.30;;;-6.00;99.90;;;;;;6249808;22;20190;-79
2024/01/09 02:37:03;;;;;;;11.17;10.87;;;-5.90;99.90;;;;;;6250080;22;20176;-79
2024/01/09 02:39:30;;;;;;;10.60;10.30;;;-5.90;99.90;;;;;;6249673;22;20180;-79
2024/01/09 02:41:58;;;;;;;10.73;10.43;;;-5.90;99.90;;;;;;6249413;22;20189;-78
2024/01/09 02:44:25;;;;;;;10.50;10.20;;;-6.00;99.90;;;;;;6249638;22;20206;-80
2024/01/09 02:46:52;;;;;;;10.20;9.90;;;-6.00;99.90;;;;;;6249271;22;20185;-77
2024/01/09 02:49:21;;;;;;;11.10;10.80;;;-6.00;99.90;;;;;;6239770;22;20284;-78
2024/01/09 02:51:48;;;;;;;10.60;10.30;;;-6.00;99.90;;;;;;6227912;22;20530;-81
2024/01/09 02:54:16;;;;;;;10.40;10.10;;;-6.00;99.90;;;;;;6229319;23;20229;-80
2024/01/09 02:56:43;;;;;;;10.53;10.23;;;-6.00;99.90;;;;;;6229295;23;20198;-80
2024/01/09 02:59:11;;;;;;;10.73;10.43;;;-6.00;99.90;;;;;;6229344;23;20201;-80
2024/01/09 03:01:38;;;;;;;10.33;10.03;;;-6.00;99.90;;;;;;6228918;22;20262;-81
2024/01/09 03:04:06;;;;;;;10.53;10.23;;;-6.00;99.90;;;;;;6228121;23;20199;-78
2024/01/09 03:06:34;;;;;;;10.67;10.37;;;-6.00;99.90;;;;;;6229263;23;20225;-80
2024/01/09 03:09:02;;;;;;;10.50;10.20;;;-6.00;99.90;;;;;;6230945;23;20251;-80
2024/01/09 03:11:30;;;;;;;10.40;10.10;;;-6.00;99.90;;;;;;6229812;22;20202;-80
2024/01/09 03:14:01;;;;;;;9.97;9.67;;;-6.00;99.90;;;;;;6231135;23;20198;-80
2024/01/09 03:16:29;;;;;;;9.93;9.63;;;-5.90;99.90;;;;;;6231889;23;20205;-81
2024/01/09 03:19:13;;;;;;;10.00;9.70;;;-6.00;99.90;;;;;;6229757;23;20206;-78
2024/01/09 03:21:41;;;;;;;10.20;9.90;;;-6.10;99.90;;;;;;6229721;22;20263;-79
2024/01/09 03:24:09;;;;;;;10.03;9.73;;;-6.20;99.90;;;;;;6233057;23;20200;-78
2024/01/09 03:26:36;;;;;;;11.00;10.70;;;-6.20;99.90;;;;;;6229401;23;20231;-78
2024/01/09 03:29:04;;;;;;;9.80;9.50;;;-6.20;99.90;;;;;;6228010;23;20195;-79
2024/01/09 03:31:31;;;;;;;10.40;10.10;;;-6.20;99.90;;;;;;6228948;22;20204;-78
2024/01/09 03:33:59;;;;;;;10.87;10.57;;;-6.20;99.90;;;;;;6229849;23;20197;-80
2024/01/09 03:36:26;;;;;;;10.60;10.30;;;-6.20;99.90;;;;;;6231192;23;20244;-78
2024/01/09 03:38:55;;;;;;;10.60;10.30;;;-6.20;99.90;;;;;;6231134;23;20198;-81
2024/01/09 03:41:22;;;;;;;10.50;10.20;;;-6.20;99.90;;;;;;6232068;22;20228;-78
2024/01/09 03:43:50;;;;;;;9.90;9.60;;;-6.10;99.90;;;;;;6234487;23;20255;-78
2024/01/09 03:46:17;;;;;;;10.07;9.77;;;-6.10;99.90;;;;;;6230493;23;20205;-78
2024/01/09 03:48:44;;;;;;;10.03;9.73;;;-6.10;99.90;;;;;;6228446;23;20216;-78
2024/01/09 03:51:12;;;;;;;9.83;9.53;;;-6.10;99.90;;;;;;6228437;22;20210;-78
2024/01/09 03:53:39;;;;;;;10.20;9.90;;;-6.10;99.90;;;;;;6228053;23;20200;-78
2024/01/09 03:56:08;;;;;;;10.20;9.90;;;-6.10;99.90;;;;;;6229040;23;20195;-78
2024/01/09 03:58:35;;;;;;;10.10;9.80;;;-6.10;99.90;;;;;;6228292;23;20211;-79
2024/01/09 04:01:03;;;;;;;10.20;9.90;;;-6.10;99.90;;;;;;6228345;22;20202;-78
2024/01/09 04:03:31;;;;;;;9.70;9.40;;;-6.10;99.90;;;;;;6228075;23;20202;-79
2024/01/09 04:05:58;;;;;;;9.80;9.50;;;-6.10;99.90;;;;;;6228415;23;20266;-78
2024/01/09 04:08:25;;;;;;;9.60;9.30;;;-6.10;99.90;;;;;;6228845;23;20203;-78
2024/01/09 04:10:53;;;;;;;10.03;9.73;;;-6.10;99.90;;;;;;6228128;22;20204;-79
2024/01/09 04:13:22;;;;;;;9.70;9.40;;;-6.10;99.90;;;;;;6228996;23;20687;-81
2024/01/09 04:15:49;;;;;;;10.37;10.07;;;-6.10;99.90;;;;;;6229105;23;20196;-78
2024/01/09 04:18:17;;;;;;;10.47;10.17;;;-6.10;99.90;;;;;;6228573;23;20232;-78
2024/01/09 04:20:44;;;;;;;10.17;9.87;;;-6.10;99.90;;;;;;6229179;22;20217;-80
2024/01/09 04:23:11;;;;;;;10.60;10.30;;;-6.10;99.90;;;;;;6229338;23;20192;-79
2024/01/09 04:25:39;;;;;;;10.90;10.60;;;-6.10;99.90;;;;;;6229432;23;20201;-79
2024/01/09 04:28:07;;;;;;;10.67;10.37;;;-6.10;99.90;;;;;;6230700;23;20229;-80
2024/01/09 04:30:35;;;;;;;10.37;10.07;;;-6.10;99.90;;;;;;6229693;22;20230;-79
2024/01/09 04:33:03;;;;;;;9.80;9.50;;;-6.10;99.90;;;;;;6229415;23;20204;-80
2024/01/09 04:35:30;;;;;;;10.27;9.97;;;-6.10;99.90;;;;;;6232668;23;20203;-79
2024/01/09 04:37:58;;;;;;;10.77;10.47;;;-6.10;99.90;;;;;;6230650;23;20198;-79
2024/01/09 04:40:27;;;;;;;10.23;9.93;;;-6.00;99.90;;;;;;6229331;22;20212;-78
2024/01/09 04:42:55;;;;;;;10.20;9.90;;;-6.10;99.90;;;;;;6230142;23;20204;-80
2024/01/09 04:45:22;;;;;;;9.83;9.53;;;-6.10;99.90;;;;;;6230171;23;20266;-80
2024/01/09 04:47:51;;;;;;;9.57;9.27;;;-6.10;99.90;;;;;;6230990;23;20197;-79
2024/01/09 04:50:18;;;;;;;9.93;9.63;;;-6.10;99.90;;;;;;6230986;22;20206;-79
2024/01/09 04:52:46;;;;;;;9.70;9.40;;;-6.10;99.90;;;;;;6233244;23;20217;-79
2024/01/09 04:55:13;;;;;;;9.63;9.33;;;-6.20;99.90;;;;;;6233047;23;20192;-81
2024/01/09 04:57:40;;;;;;;9.33;9.03;;;-6.20;99.90;;;;;;6231596;23;20201;-79
2024/01/09 05:00:14;;;;;;;9.97;9.67;;;-6.20;99.90;;;;;;6230065;23;20259;-79
2024/01/09 05:02:41;;;;;;;9.87;9.57;;;-6.20;99.90;;;;;;6230070;22;20206;-79
2024/01/09 05:05:10;;;;;;;9.90;9.60;;;-6.20;99.90;;;;;;6229731;23;20194;-79
2024/01/09 05:07:37;;;;;;;10.10;9.80;;;-6.20;99.90;;;;;;6229840;23;20198;-79
2024/01/09 05:10:06;;;;;;;10.07;9.77;;;-6.20;99.90;;;;;;6230072;23;20204;-79
2024/01/09 05:12:33;;;;;;;9.90;9.60;;;-6.20;99.90;;;;;;6230493;22;20205;-79
2024/01/09 05:15:01;;;;;;;10.00;9.70;;;-6.20;99.90;;;;;;6231814;23;20206;-79
2024/01/09 05:17:28;;;;;;;10.40;10.10;;;-6.20;99.90;;;;;;6232574;23;20253;-79
2024/01/09 05:19:56;;;;;;;9.80;9.50;;;-6.20;99.90;;;;;;6229875;23;20304;-79
2024/01/09 05:22:25;;;;;;;9.80;9.50;;;-6.20;99.90;;;;;;6230301;22;20205;-80
2024/01/09 05:24:52;;;;;;;10.30;10.00;;;-6.20;99.90;;;;;;6230043;23;20250;-80
2024/01/09 05:27:21;;;;;;;9.80;9.50;;;-6.20;99.90;;;;;;6230307;23;20260;-80
2024/01/09 05:29:49;;;;;;;9.93;9.63;;;-6.20;99.90;;;;;;6229687;23;20191;-80
2024/01/09 05:32:16;;;;;;;10.13;9.83;;;-6.10;99.90;;;;;;6230104;22;20204;-80
2024/01/09 05:34:44;;;;;;;10.00;9.70;;;-6.10;99.90;;;;;;6230730;23;20202;-79
2024/01/09 05:37:11;;;;;;;9.73;9.43;;;-6.10;99.90;;;;;;6231853;23;20204;-79
2024/01/09 05:39:40;;;;;;;10.00;9.70;;;-6.10;99.90;;;;;;6229829;23;20200;-80
2024/01/09 05:42:15;;;;;;;9.90;9.60;;;-6.20;99.90;;;;;;6228027;22;20200;-85
2024/01/09 05:44:46;;;;;;;9.93;9.63;;;-6.10;99.90;;;;;;6228611;23;20232;-85
2024/01/09 05:47:34;;;;;;;;;;;;;;;;;;;;;
2024/01/09 05:50:17;;;;;;;9.90;9.60;;;-6.00;99.90;;;;;;6244456;22;20225;-86
2024/01/09 05:52:56;;;;;;;9.97;9.67;;;-6.10;99.90;;;;;;6250327;22;20186;-85
2024/01/09 05:55:45;;;;;;;9.60;9.30;;;-6.00;99.90;;;;;;6240908;23;20200;-85
2024/01/09 05:58:30;;;;;;;9.47;9.17;;;-6.00;99.90;;;;;;6248340;23;20200;-84
2024/01/09 06:04:08;;;;;;;9.70;9.40;;;-6.00;99.90;;;;;;6227102;23;20208;-85
2024/01/09 06:06:40;;;;;;;9.40;9.10;;;-6.00;99.90;;;;;;6227992;23;20192;-85
2024/01/09 06:09:31;;;;;;;10.13;9.83;;;-6.00;99.90;;;;;;6227588;23;20196;-85
2024/01/09 06:12:10;;;;;;;9.30;9.00;;;-6.10;99.90;;;;;;6227384;22;20237;-85
2024/01/09 06:14:42;;;;;;;9.70;9.40;;;-6.00;99.90;;;;;;6227525;23;20204;-86
2024/01/09 06:17:21;;;;;;;9.27;8.97;;;-6.00;99.90;;;;;;6238122;23;20197;-85
2024/01/09 06:20:15;;;;;;;10.10;9.80;;;-6.00;99.90;;;;;;6239906;23;20279;-85
2024/01/09 06:22:56;;;;;;;10.40;10.10;;;-6.00;99.90;;;;;;6108724;23;20213;-86
2024/01/09 06:25:37;;;;;;;10.10;9.80;;;-5.90;99.90;;;;;;6147022;23;20209;-85
2024/01/09 06:28:30;;;;;;;10.30;10.00;;;-6.00;99.90;;;;;;6227326;23;20195;-85
2024/01/09 06:31:24;;;;;;;9.77;9.47;;;-6.00;99.90;;;;;;6227666;22;20199;-86
2024/01/09 06:34:02;;;;;;;9.80;9.50;;;-6.00;99.90;;;;;;6228179;23;20231;-86
2024/01/09 06:36:40;;;;;;;9.83;9.53;;;-6.00;99.90;;;;;;6227828;23;20195;-85
2024/01/09 06:39:37;;;;;;;9.57;9.27;;;-6.00;99.90;;;;;;6241461;22;20173;-86
2024/01/09 06:42:47;;;;;;;9.60;9.30;;;-6.00;99.90;;;;;;6239211;22;20278;-85
2024/01/09 06:45:33;;;;;;;9.87;9.57;;;-6.00;99.90;;;;;;6226825;23;20201;-86
2024/01/09 06:48:13;;;;;;;9.93;9.63;;;-6.00;99.90;;;;;;6226872;23;20211;-86
2024/01/09 06:50:51;;;;;;;9.67;9.37;;;-6.00;99.90;;;;;;6227170;23;20197;-85
2024/01/09 06:53:39;;;;;;;10.40;10.10;;;-6.00;99.90;;;;;;6227393;22;20284;-86
2024/01/09 06:56:46;;;;;;;;;;;;;;;;;;;;;
2024/01/09 06:59:18;;;;;;;10.17;9.87;;;-5.90;99.90;;;;;;6227565;23;20196;-85
2024/01/09 07:01:49;;;;;;;10.07;9.77;;;-5.90;99.90;;;;;;6227076;22;20210;-86
2024/01/09 07:04:44;;;;;;;9.90;9.60;;;-6.00;99.90;;;;;;6227608;23;20201;-86
2024/01/09 07:07:26;;;;;;;10.60;10.30;;;-5.90;99.90;;;;;;6229188;23;20284;-86
2024/01/09 07:10:16;;;;;;;9.70;9.40;;;-5.90;99.90;;;;;;6249678;22;20174;-87
2024/01/09 07:12:58;;;;;;;10.53;10.23;;;-5.80;99.90;;;;;;6250051;22;20192;-85
2024/01/09 07:15:50;;;;;;;;;;;;;;;;;;;;;
2024/01/09 07:18:43;;;;;;;9.40;9.10;;;-5.80;99.90;;;;;;6199339;23;20212;-87
2024/01/09 07:21:17;;;;;;;9.97;9.67;;;-5.80;99.90;;;;;;6226044;22;20200;-86
2024/01/09 07:23:56;;;;;;;9.67;9.37;;;-5.80;99.90;;;;;;6227700;23;20199;-86
2024/01/09 07:26:44;;;;;;;9.37;9.07;;;-5.70;99.90;;;;;;6227089;23;20207;-86
2024/01/09 07:29:38;;;;;;;10.03;9.73;;;-5.70;99.90;;;;;;6226531;23;20673;-86
2024/01/09 07:32:25;;;;;;;9.80;9.50;;;-5.70;99.90;;;;;;6227140;22;20194;-86
2024/01/09 07:35:12;;;;;;;9.77;9.47;;;-5.70;99.90;;;;;;6227175;23;20208;-86
2024/01/09 07:37:55;;;;;;;9.73;9.43;;;-5.60;99.90;;;;;;6227272;23;20279;-86
2024/01/09 07:40:30;;;;;;;9.70;9.40;;;-5.60;99.90;;;;;;6226054;23;20204;-86
2024/01/09 07:43:14;;;;;;;10.07;9.77;;;-5.60;99.90;;;;;;6226781;22;20217;-86
2024/01/09 07:45:52;;;;;;;9.87;9.57;;;-5.50;99.90;;;;;;6225472;23;20261;-86
2024/01/09 07:48:42;;;;;;;10.27;9.97;;;-5.40;99.90;;;;;;6225575;23;20241;-87
2024/01/09 07:51:15;;;;;;;10.07;9.77;;;-5.30;99.90;;;;;;6225641;22;20266;-85
2024/01/09 07:53:57;;;;;;;10.37;10.07;;;-5.30;99.90;;;;;;6225541;23;20204;-86
2024/01/09 07:56:37;;;;;;;10.27;9.97;;;-5.20;99.90;;;;;;6226741;23;20221;-86
2024/01/09 07:59:29;;;;;;;10.27;9.97;;;-5.10;99.90;;;;;;6227214;23;20202;-86
2024/01/09 08:02:06;;;;;;;10.27;9.97;;;-5.00;99.90;;;;;;6221040;22;20213;-86
2024/01/09 08:04:54;;;;;;;10.27;9.97;;;-5.00;99.90;;;;;;6227043;23;20210;-86
2024/01/09 08:07:38;;;;;;;10.30;10.00;;;-4.90;99.90;;;;;;6227642;23;20551;-86
2024/01/09 08:10:11;;;;;;;10.07;9.77;;;-4.80;99.90;;;;;;6230261;23;20194;-86
2024/01/09 08:12:52;;;;;;;10.00;9.70;;;-4.80;99.90;;;;;;6227904;22;20303;-86
2024/01/09 08:15:30;;;;;;;10.30;10.00;;;-4.70;99.90;;;;;;6227428;23;20249;-86
2024/01/09 08:18:06;;;;;;;9.70;9.40;;;-4.70;99.90;;;;;;6227903;23;20202;-86
2024/01/09 08:20:49;;;;;;;;;;;;;;;;;;;;;
2024/01/09 08:23:24;;;;;;;10.23;9.93;;;-4.60;99.90;;;;;;6228182;22;20202;-86
2024/01/09 08:25:58;;;;;;;10.10;9.80;;;-4.60;99.90;;;;;;6228027;23;20220;-86
2024/01/09 08:28:29;;;;;;;10.53;10.23;;;-4.50;99.90;;;;;;6227607;23;20199;-86
2024/01/09 08:31:02;;;;;;;10.63;10.33;;;-4.40;99.90;;;;;;6229604;22;20201;-87
2024/01/09 08:33:35;;;;;;;10.07;9.77;;;-4.30;99.90;;;;;;6229392;23;20198;-86
2024/01/09 08:36:16;;;;;;;10.10;9.80;;;-4.30;99.90;;;;;;6228353;23;20217;-86
2024/01/09 08:38:58;;;;;;;10.27;9.97;;;-4.20;99.90;;;;;;6229051;23;20194;-86
2024/01/09 08:41:32;;;;;;;10.27;9.97;;;-4.10;99.90;;;;;;6228712;22;20207;-86
2024/01/09 08:44:04;;;;;;;10.50;10.20;;;-3.90;99.90;;;;;;6229418;23;20187;-86
2024/01/09 08:46:50;;;;;;;;;;;;;;;;;;;;;
2024/01/09 08:49:27;;;;;;;10.10;9.80;;;-3.90;99.90;;;;;;6214495;22;20197;-86
2024/01/09 08:52:04;;;;;;;10.27;9.97;;;-3.70;99.90;;;;;;6230498;22;20261;-86
2024/01/09 08:54:53;;;;;;;10.50;10.20;;;-3.60;99.90;;;;;;6250420;22;20190;-86
2024/01/09 08:57:32;;;;;;;10.10;9.80;;;-3.50;99.90;;;;;;6250769;22;20197;-87
2024/01/09 09:00:25;;;;;;;;;;;;;;;;;;;;;
2024/01/09 09:03:13;;;;;;;10.67;10.37;;;-3.40;99.90;;;;;;6235899;22;20199;-87
2024/01/09 09:09:35;;;;;;;;;;;;;;;;;;;;;
2024/01/09 09:12:55;;;;;;;;;;;;;;;;;;;;;
2024/01/09 09:16:23;;;;;;;10.40;10.10;;;-2.80;99.90;;;;;;6229111;23;20203;-87
2024/01/09 09:19:25;;;;;;;;;;;;;;;;;;;;;
2024/01/09 09:22:49;;;;;;;;;;;;;;;;;;;;;
2024/01/09 09:29:57;;;;;;;;;;;;;;;;;;;;;
2024/01/09 09:40:33;;;;;;;10.60;10.30;;;-1.90;99.90;;;;;;6086799;23;20286;-87
2024/01/09 09:43:58;;;;;;;;;;;;;;;;;;;;;
2024/01/09 09:46:37;;;;;;;10.53;10.23;;;-1.60;99.90;;;;;;6233699;23;20209;-87
2024/01/09 09:49:31;;;;;;;10.93;10.63;;;-1.30;99.90;;;;;;6235984;23;20187;-87
2024/01/09 09:52:11;;;;;;;10.27;9.97;;;-1.30;99.90;;;;;;6229227;22;20303;-87
2024/01/09 09:54:54;;;;;;;11.00;10.70;;;-1.30;99.90;;;;;;6227413;23;20220;-87
2024/01/09 09:57:26;;;;;;;11.00;10.70;;;-1.20;99.90;;;;;;6227000;23;20211;-87
2024/01/09 10:00:03;;;;;;;10.97;10.67;;;-1.10;99.90;;;;;;6228510;23;20202;-87
2024/01/09 10:02:39;;;;;;;11.07;10.77;;;-0.80;99.90;;;;;;6228767;22;20205;-87
2024/01/09 10:05:14;;;;;;;11.20;10.90;;;-0.70;99.90;;;;;;6229687;23;20225;-87
2024/01/09 10:10:46;;;;;;;;;;;;;;;;;;;;;
2024/01/09 10:13:16;;;;;;;10.90;10.60;;;-0.30;99.90;;;;;;6238008;22;20208;-87
2024/01/09 10:16:03;;;;;;;10.90;10.60;;;-0.30;99.90;;;;;;6244571;22;20189;-88
2024/01/09 10:18:35;;;;;;;10.80;10.50;;;-0.40;99.90;;;;;;6249419;22;20209;-88
2024/01/09 10:21:07;;;;;;;10.47;10.17;;;-0.60;99.90;;;;;;6249827;22;20193;-87
2024/01/09 10:23:40;;;;;;;10.67;10.37;;;-0.50;99.90;;;;;;6239808;22;20195;-88
2024/01/09 10:26:12;;;;;;;10.90;10.60;;;-0.60;99.90;;;;;;6233600;23;20243;-86
2024/01/09 10:28:41;;;;;;;10.77;10.47;;;-0.50;99.90;;;;;;6231730;23;20205;-88
2024/01/09 10:31:10;;;;;;;10.80;10.50;;;-0.30;99.90;;;;;;6231165;22;20186;-88
2024/01/09 10:33:43;;;;;;;10.80;10.50;;;-0.30;99.90;;;;;;6231102;23;20195;-88
2024/01/09 10:36:13;;;;;;;10.83;10.53;;;-0.10;99.90;;;;;;6232232;23;20250;-88
2024/01/09 10:38:44;;;;;;;11.00;10.70;;;0.10;99.90;;;;;;6244940;22;20187;-89
2024/01/09 10:41:19;;;;;;;11.27;10.87;;;0.20;99.90;;;;;;6250012;22;20250;-88
2024/01/09 10:43:52;;;;;;;11.40;11.00;;;0.20;99.90;;;;;;6248193;22;20217;-88
2024/01/09 10:46:41;;;;;;;10.90;10.60;;;0.20;99.90;;;;;;6234530;23;20206;-88
2024/01/09 10:49:21;;;;;;;11.00;10.70;;;0.30;99.90;;;;;;6232021;23;20203;-88
2024/01/09 10:51:54;;;;;;;11.50;11.10;;;0.30;99.90;;;;;;6228814;22;20205;-87
2024/01/09 10:54:32;;;;;;;11.30;10.90;;;0.50;99.90;;;;;;6229413;23;20194;-87
2024/01/09 10:57:04;;;;;;;11.23;10.83;;;0.60;99.90;;;;;;6231322;23;20199;-87
2024/01/09 10:59:42;;;;;;;10.90;10.60;;;0.40;99.90;;;;;;6248902;22;20193;-87
2024/01/09 11:02:21;;;;;;;10.90;10.60;;;0.40;99.90;;;;;;6234130;22;20226;-87
2024/01/09 11:04:54;;;;;;;11.00;10.70;;;0.70;99.90;;;;;;6237427;23;20187;-87
2024/01/09 11:07:31;;;;;;;10.80;10.50;;;0.60;99.90;;;;;;6249593;22;20191;-87
2024/01/09 11:10:16;;;;;;;10.67;10.37;;;0.60;99.90;;;;;;6249531;22;20210;-88
2024/01/09 11:12:53;;;;;;;10.87;10.57;;;0.60;99.90;;;;;;6237114;22;20190;-87
2024/01/09 11:15:31;;;;;;;10.67;10.37;;;0.70;99.90;;;;;;6232719;23;20301;-87
2024/01/09 11:18:12;;;;;;;10.97;10.67;;;0.50;99.90;;;;;;6230812;23;20271;-88
2024/01/09 11:20:53;;;;;;;10.67;10.37;;;0.70;99.90;;;;;;6229940;23;20191;-88
2024/01/09 11:23:55;;;;;;;11.10;10.80;;;1.10;99.90;;;;;;6230285;22;20211;-88
2024/01/09 11:26:29;;;;;;;11.47;11.07;;;1.40;99.90;;;;;;6229721;23;20197;-88
2024/01/09 11:29:10;;;;;;;;;;;;;;;;;;;;;
2024/01/09 11:31:51;;;;;;;11.40;11.00;;;1.50;99.90;;;;;;6229481;22;20230;-88
2024/01/09 11:34:41;;;;;;;11.23;10.83;;;1.50;99.90;;;;;;6241302;23;20187;-88
2024/01/09 11:37:15;;;;;;;11.20;10.80;;;1.70;99.90;;;;;;6243316;23;20187;-88
2024/01/09 11:39:49;;;;;;;11.10;10.80;;;1.40;99.90;;;;;;6235064;23;20253;-88
2024/01/09 11:42:17;;;;;;;10.90;10.60;;;1.50;99.90;;;;;;6231163;22;20203;-80
2024/01/09 11:44:44;;;;;;;10.93;10.63;;;1.70;99.90;;;;;;6234012;23;20203;-79
2024/01/09 11:47:11;;;;;;;11.00;10.70;;;1.30;99.90;;;;;;6234365;23;20195;-80
2024/01/09 11:49:39;;;;;;;11.50;11.10;;;1.30;99.90;;;;;;6233860;23;20199;-79
2024/01/09 11:52:06;;;;;;;10.90;10.60;;;1.60;99.90;;;;;;6235494;22;20203;-80
2024/01/09 11:54:35;;;;;;;10.80;10.50;;;1.70;99.90;;;;;;6246046;22;20175;-79
2024/01/09 11:57:04;;;;;;;11.10;10.80;;;1.70;99.90;;;;;;6250616;22;20177;-78
2024/01/09 11:59:32;;;;;;;10.67;10.37;;;1.60;99.90;;;;;;6250703;22;20175;-78
2024/01/09 12:01:59;;;;;;;10.77;10.47;;;1.40;99.90;;;;;;6250401;22;20198;-78
2024/01/09 12:04:27;;;;;;;11.03;10.73;;;1.60;99.90;;;;;;6250741;22;20193;-78
2024/01/09 12:06:54;;;;;;;11.03;10.73;;;1.80;99.90;;;;;;6250514;22;20171;-78
2024/01/09 12:09:22;;;;;;;11.30;10.93;;;1.90;99.90;;;;;;6250620;22;20226;-79
2024/01/09 12:11:50;;;;;;;11.50;11.10;;;2.10;99.90;;;;;;6250679;22;20183;-78
2024/01/09 12:14:19;;;;;;;10.80;10.50;;;2.30;99.90;;;;;;6250586;22;20198;-79
2024/01/09 12:16:46;;;;;;;11.60;11.20;;;2.50;99.90;;;;;;6250665;22;20193;-79
2024/01/09 12:19:16;;;;;;;11.30;10.90;;;2.30;99.90;;;;;;6250377;22;20186;-78
2024/01/09 12:21:43;;;;;;;11.37;10.97;;;2.50;99.90;;;;;;6249792;22;20198;-79
2024/01/09 12:24:11;;;;;;;11.20;10.80;;;2.60;99.90;;;;;;6250535;22;20176;-79
2024/01/09 12:26:39;;;;;;;10.90;10.60;;;2.60;99.90;;;;;;6250690;22;20183;-79
2024/01/09 12:29:08;;;;;;;11.47;11.07;;;2.80;99.90;;;;;;6250352;22;20183;-78
2024/01/09 12:31:36;;;;;;;11.30;10.90;;;2.90;99.90;;;;;;6250485;22;20242;-79
2024/01/09 12:34:04;;;;;;;11.20;10.80;;;2.70;99.90;;;;;;6249847;22;20182;-79
2024/01/09 12:36:32;;;;;;;11.43;11.03;;;2.80;99.90;;;;;;6242119;22;20191;-79
2024/01/09 12:38:59;;;;;;;11.60;11.20;;;2.80;99.90;;;;;;6231865;23;20202;-80
2024/01/09 12:41:28;;;;;;;11.27;10.87;;;2.90;99.90;;;;;;6231494;22;20234;-80
2024/01/09 12:43:55;;;;;;;11.33;10.93;;;3.00;99.90;;;;;;6231803;23;20281;-80
2024/01/09 12:46:24;;;;;;;11.50;11.10;;;3.20;99.90;;;;;;6231256;23;20199;-80
2024/01/09 12:48:51;;;;;;;11.53;11.13;;;3.60;99.90;;;;;;6232892;23;20195;-80
2024/01/09 12:51:20;;;;;;;10.60;10.30;;;3.40;99.90;;;;;;6234238;22;20206;-79
2024/01/09 12:53:49;;;;;;;10.70;10.40;;;3.50;99.90;;;;;;6233540;23;20186;-80
2024/01/09 12:56:16;;;;;;;11.00;10.70;;;3.40;99.90;;;;;;6230717;23;20281;-80
2024/01/09 12:58:46;;;;;;;10.87;10.57;;;3.10;99.90;;;;;;6230745;23;20191;-80
2024/01/09 13:01:15;;;;;;;10.80;10.50;;;2.90;99.90;;;;;;6230600;22;20202;-80
2024/01/09 13:03:45;;;;;;;10.73;10.43;;;2.80;99.90;;;;;;6234230;23;20202;-80
2024/01/09 13:06:13;;;;;;;10.90;10.60;;;2.70;99.90;;;;;;6233683;23;20198;-80
2024/01/09 13:08:41;;;;;;;11.40;11.00;;;2.90;99.90;;;;;;6233079;23;20243;-80
2024/01/09 13:11:10;;;;;;;11.30;10.90;;;3.10;99.90;;;;;;6231882;23;20201;-80
2024/01/09 13:13:39;;;;;;;11.27;10.87;;;3.20;99.90;;;;;;6231527;23;20211;-80
2024/01/09 13:16:08;;;;;;;11.40;11.00;;;3.10;99.90;;;;;;6232180;23;20195;-80
2024/01/09 13:18:36;;;;;;;11.47;11.07;;;3.20;99.90;;;;;;6232973;23;20686;-81
2024/01/09 13:21:05;;;;;;;11.27;10.97;;;3.20;99.90;;;;;;6231716;23;20271;-81
2024/01/09 13:23:33;;;;;;;11.10;10.80;;;3.30;99.90;;;;;;6231287;22;20191;-80
2024/01/09 13:26:02;;;;;;;11.37;10.97;;;3.30;99.90;;;;;;6233825;23;20198;-80
2024/01/09 13:28:29;;;;;;;11.10;10.80;;;3.40;99.90;;;;;;6234752;23;20271;-81
2024/01/09 13:30:57;;;;;;;11.10;10.80;;;3.40;99.90;;;;;;6231751;23;20199;-80
2024/01/09 13:33:24;;;;;;;10.93;10.63;;;3.30;99.90;;;;;;6231310;22;20215;-80
2024/01/09 13:35:52;;;;;;;10.97;10.67;;;3.20;99.90;;;;;;6231749;23;20195;-80
2024/01/09 13:38:22;;;;;;;10.77;10.47;;;3.10;99.90;;;;;;6231867;23;20246;-80
2024/01/09 13:40:49;;;;;;;10.83;10.53;;;3.20;99.90;;;;;;6231810;23;20206;-80
2024/01/09 13:43:17;;;;;;;11.03;10.73;;;3.30;99.90;;;;;;6231364;22;20218;-80
2024/01/09 13:45:44;;;;;;;11.00;10.70;;;3.50;99.90;;;;;;6231990;23;20241;-80